sensor_id;sensor_type;location;lat;lon;timestamp;pressure;altitude;pressure_sealevel;temperature;humidity
29359;BME280;16347;53.232;6.556;2023-06-14T00:00:01;101764.66;;;26.61;27.87
29359;BME280;16347;53.232;6.556;2023-06-14T00:02:31;101765.03;;;26.52;28.21
29359;BME280;16347;53.232;6.556;2023-06-14T00:04:59;101768.56;;;26.48;28.16
29359;BME280;16347;53.232;6.556;2023-06-14T00:07:35;101764.44;;;26.50;28.39
29359;BME280;16347;53.232;6.556;2023-06-14T00:10:06;101760.91;;;26.43;28.33
29359;BME280;16347;53.232;6.556;2023-06-14T00:12:35;101760.91;;;26.43;28.54
29359;BME280;16347;53.232;6.556;2023-06-14T00:15:04;101758.84;;;26.39;28.53
29359;BME280;16347;53.232;6.556;2023-06-14T00:17:33;101766.13;;;26.28;28.60
29359;BME280;16347;53.232;6.556;2023-06-14T00:20:04;101760.03;;;26.20;28.83
29359;BME280;16347;53.232;6.556;2023-06-14T00:22:36;101764.94;;;26.06;29.01
29359;BME280;16347;53.232;6.556;2023-06-14T00:25:06;101765.41;;;26.03;29.16
29359;BME280;16347;53.232;6.556;2023-06-14T00:27:55;101767.59;;;26.01;29.30
29359;BME280;16347;53.232;6.556;2023-06-14T00:30:24;101767.31;;;25.91;29.26
29359;BME280;16347;53.232;6.556;2023-06-14T00:32:58;101771.38;;;25.77;29.79
29359;BME280;16347;53.232;6.556;2023-06-14T00:35:27;101779.63;;;25.72;30.03
29359;BME280;16347;53.232;6.556;2023-06-14T00:37:57;101777.44;;;25.74;29.93
29359;BME280;16347;53.232;6.556;2023-06-14T00:40:29;101768.97;;;25.80;30.13
29359;BME280;16347;53.232;6.556;2023-06-14T00:42:57;101769.34;;;25.84;29.88
29359;BME280;16347;53.232;6.556;2023-06-14T00:45:25;101772.91;;;25.91;30.13
29359;BME280;16347;53.232;6.556;2023-06-14T00:47:54;101776.91;;;25.95;30.18
29359;BME280;16347;53.232;6.556;2023-06-14T00:50:23;101778.00;;;25.94;30.17
29359;BME280;16347;53.232;6.556;2023-06-14T00:52:51;101778.47;;;25.91;30.23
29359;BME280;16347;53.232;6.556;2023-06-14T00:55:21;101777.34;;;25.80;30.46
29359;BME280;16347;53.232;6.556;2023-06-14T00:57:50;101773.31;;;25.76;30.49
29359;BME280;16347;53.232;6.556;2023-06-14T01:00:18;101783.69;;;25.69;30.72
29359;BME280;16347;53.232;6.556;2023-06-14T01:02:49;101765.16;;;25.63;30.59
29359;BME280;16347;53.232;6.556;2023-06-14T01:05:18;101771.09;;;25.67;30.64
29359;BME280;16347;53.232;6.556;2023-06-14T01:07:59;101775.97;;;25.71;30.80
29359;BME280;16347;53.232;6.556;2023-06-14T01:10:37;101766.75;;;25.71;30.72
29359;BME280;16347;53.232;6.556;2023-06-14T01:13:14;101770.03;;;25.68;30.93
29359;BME280;16347;53.232;6.556;2023-06-14T01:15:43;101767.34;;;25.61;30.93
29359;BME280;16347;53.232;6.556;2023-06-14T01:18:12;101769.09;;;25.56;31.08
29359;BME280;16347;53.232;6.556;2023-06-14T01:20:45;101775.16;;;25.52;31.44
29359;BME280;16347;53.232;6.556;2023-06-14T01:23:18;101770.28;;;25.48;31.36
29359;BME280;16347;53.232;6.556;2023-06-14T01:25:47;101773.75;;;25.43;31.25
29359;BME280;16347;53.232;6.556;2023-06-14T01:28:20;101764.16;;;25.39;31.82
29359;BME280;16347;53.232;6.556;2023-06-14T01:30:50;101772.50;;;25.39;31.68
29359;BME280;16347;53.232;6.556;2023-06-14T01:33:25;101769.72;;;25.39;31.41
29359;BME280;16347;53.232;6.556;2023-06-14T01:35:58;101770.19;;;25.36;32.04
29359;BME280;16347;53.232;6.556;2023-06-14T01:38:31;101769.44;;;25.29;31.57
29359;BME280;16347;53.232;6.556;2023-06-14T01:41:00;101771.31;;;25.17;31.81
29359;BME280;16347;53.232;6.556;2023-06-14T01:43:29;101777.63;;;25.06;32.31
29359;BME280;16347;53.232;6.556;2023-06-14T01:46:00;101768.91;;;25.02;32.58
29359;BME280;16347;53.232;6.556;2023-06-14T01:48:29;101773.00;;;25.00;32.15
29359;BME280;16347;53.232;6.556;2023-06-14T01:50:59;101780.66;;;24.86;32.35
29359;BME280;16347;53.232;6.556;2023-06-14T01:53:28;101776.31;;;24.90;32.74
29359;BME280;16347;53.232;6.556;2023-06-14T01:55:57;101773.06;;;24.93;32.79
29359;BME280;16347;53.232;6.556;2023-06-14T01:58:25;101771.47;;;25.04;32.82
29359;BME280;16347;53.232;6.556;2023-06-14T02:00:54;101782.59;;;25.04;32.69
29359;BME280;16347;53.232;6.556;2023-06-14T02:03:23;101775.72;;;25.07;32.78
29359;BME280;16347;53.232;6.556;2023-06-14T02:05:52;101782.19;;;25.00;32.95
29359;BME280;16347;53.232;6.556;2023-06-14T02:08:21;101780.66;;;25.05;32.90
29359;BME280;16347;53.232;6.556;2023-06-14T02:10:49;101783.59;;;25.10;32.88
29359;BME280;16347;53.232;6.556;2023-06-14T02:13:18;101781.19;;;25.13;32.84
29359;BME280;16347;53.232;6.556;2023-06-14T02:15:47;101781.19;;;25.13;32.73
29359;BME280;16347;53.232;6.556;2023-06-14T02:18:21;101783.59;;;25.10;32.84
29359;BME280;16347;53.232;6.556;2023-06-14T02:20:49;101784.66;;;25.09;32.99
29359;BME280;16347;53.232;6.556;2023-06-14T02:23:17;101779.72;;;25.11;33.17
29359;BME280;16347;53.232;6.556;2023-06-14T02:25:45;101783.97;;;25.13;32.64
29359;BME280;16347;53.232;6.556;2023-06-14T02:28:13;101781.19;;;25.13;32.91
29359;BME280;16347;53.232;6.556;2023-06-14T02:30:42;101786.53;;;25.15;32.79
29359;BME280;16347;53.232;6.556;2023-06-14T02:33:11;101779.72;;;25.11;32.79
29359;BME280;16347;53.232;6.556;2023-06-14T02:35:41;101779.09;;;25.09;33.21
29359;BME280;16347;53.232;6.556;2023-06-14T02:38:09;101784.53;;;25.04;32.95
29359;BME280;16347;53.232;6.556;2023-06-14T02:40:38;101777.88;;;25.05;33.34
29359;BME280;16347;53.232;6.556;2023-06-14T02:43:09;101781.06;;;25.08;32.87
29359;BME280;16347;53.232;6.556;2023-06-14T02:45:38;101782.81;;;25.02;33.34
29359;BME280;16347;53.232;6.556;2023-06-14T02:48:08;101788.22;;;24.97;33.49
29359;BME280;16347;53.232;6.556;2023-06-14T02:50:36;101782.03;;;24.95;33.26
29359;BME280;16347;53.232;6.556;2023-06-14T02:53:04;101783.97;;;24.95;33.49
29359;BME280;16347;53.232;6.556;2023-06-14T02:55:33;101786.13;;;24.93;33.38
29359;BME280;16347;53.232;6.556;2023-06-14T02:58:06;101790.44;;;24.89;33.52
29359;BME280;16347;53.232;6.556;2023-06-14T03:00:34;101796.47;;;24.86;33.68
29359;BME280;16347;53.232;6.556;2023-06-14T03:03:03;101800.13;;;24.86;33.40
29359;BME280;16347;53.232;6.556;2023-06-14T03:05:44;101796.31;;;24.81;33.70
29359;BME280;16347;53.232;6.556;2023-06-14T03:08:16;101797.66;;;24.72;33.98
29359;BME280;16347;53.232;6.556;2023-06-14T03:10:49;101800.44;;;24.72;34.35
29359;BME280;16347;53.232;6.556;2023-06-14T03:13:18;101805.38;;;24.70;33.99
29359;BME280;16347;53.232;6.556;2023-06-14T03:15:48;101804.94;;;24.73;34.32
29359;BME280;16347;53.232;6.556;2023-06-14T03:18:18;101808.97;;;24.77;34.14
29359;BME280;16347;53.232;6.556;2023-06-14T03:20:47;101813.28;;;24.73;33.95
29359;BME280;16347;53.232;6.556;2023-06-14T03:23:15;101809.25;;;24.69;34.13
29359;BME280;16347;53.232;6.556;2023-06-14T03:25:44;101809.47;;;24.67;34.52
29359;BME280;16347;53.232;6.556;2023-06-14T03:28:12;101815.84;;;24.74;34.15
29359;BME280;16347;53.232;6.556;2023-06-14T03:30:40;101818.38;;;24.76;34.36
29359;BME280;16347;53.232;6.556;2023-06-14T03:33:10;101824.41;;;24.73;34.44
29359;BME280;16347;53.232;6.556;2023-06-14T03:35:40;101815.03;;;24.67;34.88
29359;BME280;16347;53.232;6.556;2023-06-14T03:38:10;101827.03;;;24.68;34.32
29359;BME280;16347;53.232;6.556;2023-06-14T03:40:38;101823.44;;;24.61;34.53
29359;BME280;16347;53.232;6.556;2023-06-14T03:43:07;101819.81;;;24.60;35.00
29359;BME280;16347;53.232;6.556;2023-06-14T03:45:35;101822.31;;;24.43;35.08
29359;BME280;16347;53.232;6.556;2023-06-14T03:48:04;101833.66;;;24.42;34.99
29359;BME280;16347;53.232;6.556;2023-06-14T03:50:35;101823.44;;;24.36;34.96
29359;BME280;16347;53.232;6.556;2023-06-14T03:53:06;101831.63;;;24.24;35.27
29359;BME280;16347;53.232;6.556;2023-06-14T03:55:39;101827.84;;;24.19;35.54
29359;BME280;16347;53.232;6.556;2023-06-14T03:58:11;101842.41;;;24.14;35.53
29359;BME280;16347;53.232;6.556;2023-06-14T04:00:40;101843.94;;;24.04;35.70
29359;BME280;16347;53.232;6.556;2023-06-14T04:03:07;101838.88;;;23.87;35.98
29359;BME280;16347;53.232;6.556;2023-06-14T04:05:37;101846.00;;;23.83;36.64
29359;BME280;16347;53.232;6.556;2023-06-14T04:08:07;101856.69;;;23.80;36.54
29359;BME280;16347;53.232;6.556;2023-06-14T04:10:36;101854.16;;;23.72;36.83
29359;BME280;16347;53.232;6.556;2023-06-14T04:13:06;101849.66;;;23.71;36.64
29359;BME280;16347;53.232;6.556;2023-06-14T04:15:34;101862.31;;;23.67;36.98
29359;BME280;16347;53.232;6.556;2023-06-14T04:18:04;101856.09;;;23.65;36.97
29359;BME280;16347;53.232;6.556;2023-06-14T04:20:32;101858.44;;;23.68;36.92
29359;BME280;16347;53.232;6.556;2023-06-14T04:23:11;101866.34;;;23.64;37.34
29359;BME280;16347;53.232;6.556;2023-06-14T04:25:40;101865.16;;;23.54;37.19
29359;BME280;16347;53.232;6.556;2023-06-14T04:28:14;101866.66;;;23.49;37.72
29359;BME280;16347;53.232;6.556;2023-06-14T04:30:43;101874.75;;;23.51;37.56
29359;BME280;16347;53.232;6.556;2023-06-14T04:33:13;101871.06;;;23.57;37.67
29359;BME280;16347;53.232;6.556;2023-06-14T04:35:42;101868.94;;;23.59;37.80
29359;BME280;16347;53.232;6.556;2023-06-14T04:38:17;101874.69;;;23.64;37.84
29359;BME280;16347;53.232;6.556;2023-06-14T04:40:46;101876.84;;;23.62;37.66
29359;BME280;16347;53.232;6.556;2023-06-14T04:43:18;101877.69;;;23.63;37.51
29359;BME280;16347;53.232;6.556;2023-06-14T04:45:57;101887.91;;;23.69;37.95
29359;BME280;16347;53.232;6.556;2023-06-14T04:48:26;101883.63;;;23.73;37.73
29359;BME280;16347;53.232;6.556;2023-06-14T04:50:55;101887.25;;;23.80;37.92
29359;BME280;16347;53.232;6.556;2023-06-14T04:53:23;101892.75;;;23.86;37.54
29359;BME280;16347;53.232;6.556;2023-06-14T04:55:55;101886.53;;;23.91;37.20
29359;BME280;16347;53.232;6.556;2023-06-14T04:58:26;101882.28;;;23.88;37.78
29359;BME280;16347;53.232;6.556;2023-06-14T05:00:54;101889.53;;;23.89;37.90
29359;BME280;16347;53.232;6.556;2023-06-14T05:03:23;101892.31;;;23.89;37.38
29359;BME280;16347;53.232;6.556;2023-06-14T05:05:51;101897.22;;;23.87;38.07
29359;BME280;16347;53.232;6.556;2023-06-14T05:08:20;101891.47;;;23.89;37.58
29359;BME280;16347;53.232;6.556;2023-06-14T05:10:50;101896.16;;;23.88;37.75
29359;BME280;16347;53.232;6.556;2023-06-14T05:13:18;101902.78;;;23.87;38.24
29359;BME280;16347;53.232;6.556;2023-06-14T05:15:49;101906.03;;;23.78;37.76
29359;BME280;16347;53.232;6.556;2023-06-14T05:18:18;101912.97;;;23.56;38.56
29359;BME280;16347;53.232;6.556;2023-06-14T05:20:46;101909.97;;;23.50;38.62
29359;BME280;16347;53.232;6.556;2023-06-14T05:23:14;101909.31;;;23.55;38.82
29359;BME280;16347;53.232;6.556;2023-06-14T05:25:42;101903.34;;;23.52;38.84
29359;BME280;16347;53.232;6.556;2023-06-14T05:28:11;101910.63;;;23.53;38.96
29359;BME280;16347;53.232;6.556;2023-06-14T05:30:39;101910.66;;;23.46;39.12
29359;BME280;16347;53.232;6.556;2023-06-14T05:33:09;101911.69;;;23.38;39.09
29359;BME280;16347;53.232;6.556;2023-06-14T05:35:37;101910.84;;;23.38;39.13
29359;BME280;16347;53.232;6.556;2023-06-14T05:38:05;101913.41;;;23.39;39.16
29359;BME280;16347;53.232;6.556;2023-06-14T05:40:34;101912.56;;;23.45;38.78
29359;BME280;16347;53.232;6.556;2023-06-14T05:43:02;101918.75;;;23.47;39.14
29359;BME280;16347;53.232;6.556;2023-06-14T05:45:31;101921.94;;;23.44;38.80
29359;BME280;16347;53.232;6.556;2023-06-14T05:47:59;101929.41;;;23.44;38.63
29359;BME280;16347;53.232;6.556;2023-06-14T05:50:29;101917.69;;;23.48;39.12
29359;BME280;16347;53.232;6.556;2023-06-14T05:52:57;101923.81;;;23.70;38.82
29359;BME280;16347;53.232;6.556;2023-06-14T05:55:25;101919.00;;;23.97;38.57
29359;BME280;16347;53.232;6.556;2023-06-14T05:57:54;101919.50;;;24.25;37.65
29359;BME280;16347;53.232;6.556;2023-06-14T06:00:22;101914.47;;;24.47;37.42
29359;BME280;16347;53.232;6.556;2023-06-14T06:02:49;101916.25;;;24.66;37.13
29359;BME280;16347;53.232;6.556;2023-06-14T06:05:18;101921.06;;;24.84;36.86
29359;BME280;16347;53.232;6.556;2023-06-14T06:07:47;101926.72;;;24.95;36.52
29359;BME280;16347;53.232;6.556;2023-06-14T06:10:15;101925.53;;;25.10;36.24
29359;BME280;16347;53.232;6.556;2023-06-14T06:12:44;101926.72;;;25.20;35.95
29359;BME280;16347;53.232;6.556;2023-06-14T06:15:14;101922.56;;;25.29;35.88
29359;BME280;16347;53.232;6.556;2023-06-14T06:17:43;101920.09;;;25.39;35.56
29359;BME280;16347;53.232;6.556;2023-06-14T06:20:22;101927.91;;;25.49;35.40
29359;BME280;16347;53.232;6.556;2023-06-14T06:22:57;101925.72;;;25.58;35.38
29359;BME280;16347;53.232;6.556;2023-06-14T06:25:26;101927.56;;;25.64;35.44
29359;BME280;16347;53.232;6.556;2023-06-14T06:27:55;101932.84;;;25.72;35.25
29359;BME280;16347;53.232;6.556;2023-06-14T06:30:24;101937.94;;;25.75;35.32
29359;BME280;16347;53.232;6.556;2023-06-14T06:32:54;101930.81;;;25.79;35.09
29359;BME280;16347;53.232;6.556;2023-06-14T06:35:22;101942.34;;;25.82;35.13
29359;BME280;16347;53.232;6.556;2023-06-14T06:37:50;101938.84;;;25.87;35.17
29359;BME280;16347;53.232;6.556;2023-06-14T06:40:19;101946.75;;;25.90;34.99
29359;BME280;16347;53.232;6.556;2023-06-14T06:42:47;101950.16;;;25.92;35.02
29359;BME280;16347;53.232;6.556;2023-06-14T06:45:18;101952.25;;;25.96;35.11
29359;BME280;16347;53.232;6.556;2023-06-14T06:47:48;101962.91;;;25.99;35.01
29359;BME280;16347;53.232;6.556;2023-06-14T06:50:17;101964.63;;;26.00;34.83
29359;BME280;16347;53.232;6.556;2023-06-14T06:52:46;101959.06;;;26.00;34.99
29359;BME280;16347;53.232;6.556;2023-06-14T06:55:14;101969.13;;;26.01;35.09
29359;BME280;16347;53.232;6.556;2023-06-14T06:57:44;101973.38;;;26.04;34.73
29359;BME280;16347;53.232;6.556;2023-06-14T07:00:13;101965.88;;;26.05;34.78
29359;BME280;16347;53.232;6.556;2023-06-14T07:02:41;101970.34;;;26.06;34.56
29359;BME280;16347;53.232;6.556;2023-06-14T07:05:10;101972.06;;;26.07;34.70
29359;BME280;16347;53.232;6.556;2023-06-14T07:07:39;101971.84;;;26.08;34.63
29359;BME280;16347;53.232;6.556;2023-06-14T07:10:12;101972.44;;;26.10;34.61
29359;BME280;16347;53.232;6.556;2023-06-14T07:12:40;101970.72;;;26.09;34.71
29359;BME280;16347;53.232;6.556;2023-06-14T07:15:12;101976.69;;;26.13;34.51
29359;BME280;16347;53.232;6.556;2023-06-14T07:17:43;101971.09;;;26.13;34.72
29359;BME280;16347;53.232;6.556;2023-06-14T07:20:13;101974.16;;;26.11;34.79
29359;BME280;16347;53.232;6.556;2023-06-14T07:22:42;101970.50;;;26.11;34.95
29359;BME280;16347;53.232;6.556;2023-06-14T07:25:11;101976.94;;;26.11;34.68
29359;BME280;16347;53.232;6.556;2023-06-14T07:27:43;101973.06;;;26.12;34.66
29359;BME280;16347;53.232;6.556;2023-06-14T07:30:12;101982.66;;;26.16;34.50
29359;BME280;16347;53.232;6.556;2023-06-14T07:32:41;101986.09;;;26.18;34.66
29359;BME280;16347;53.232;6.556;2023-06-14T07:35:09;101981.13;;;26.20;34.44
29359;BME280;16347;53.232;6.556;2023-06-14T07:37:37;101979.19;;;26.21;34.44
29359;BME280;16347;53.232;6.556;2023-06-14T07:40:07;101978.97;;;26.22;34.47
29359;BME280;16347;53.232;6.556;2023-06-14T07:42:41;101989.03;;;26.23;34.57
29359;BME280;16347;53.232;6.556;2023-06-14T07:45:14;101978.72;;;26.24;34.56
29359;BME280;16347;53.232;6.556;2023-06-14T07:47:43;101983.69;;;26.22;34.59
29359;BME280;16347;53.232;6.556;2023-06-14T07:50:11;101984.56;;;26.22;34.49
29359;BME280;16347;53.232;6.556;2023-06-14T07:52:40;101990.13;;;26.22;34.45
29359;BME280;16347;53.232;6.556;2023-06-14T07:55:08;101993.75;;;26.23;34.23
29359;BME280;16347;53.232;6.556;2023-06-14T07:57:36;101983.69;;;26.22;34.26
29359;BME280;16347;53.232;6.556;2023-06-14T08:00:05;101979.47;;;26.13;34.34
29359;BME280;16347;53.232;6.556;2023-06-14T08:02:41;101982.22;;;26.19;34.23
29359;BME280;16347;53.232;6.556;2023-06-14T08:05:09;101982.22;;;26.19;34.08
29359;BME280;16347;53.232;6.556;2023-06-14T08:07:37;101984.78;;;26.21;34.05
29359;BME280;16347;53.232;6.556;2023-06-14T08:10:06;101972.75;;;26.20;33.90
29359;BME280;16347;53.232;6.556;2023-06-14T08:12:36;101977.88;;;26.23;33.96
29359;BME280;16347;53.232;6.556;2023-06-14T08:15:05;101972.53;;;26.22;33.92
29359;BME280;16347;53.232;6.556;2023-06-14T08:17:42;101981.97;;;26.21;34.20
29359;BME280;16347;53.232;6.556;2023-06-14T08:20:11;101986.50;;;26.22;34.01
29359;BME280;16347;53.232;6.556;2023-06-14T08:22:40;101978.97;;;26.22;33.71
29359;BME280;16347;53.232;6.556;2023-06-14T08:25:09;101981.50;;;26.24;33.96
29359;BME280;16347;53.232;6.556;2023-06-14T08:27:38;101987.47;;;26.27;33.63
29359;BME280;16347;53.232;6.556;2023-06-14T08:30:07;101977.41;;;26.26;33.75
29359;BME280;16347;53.232;6.556;2023-06-14T08:32:36;101983.59;;;26.28;33.81
29359;BME280;16347;53.232;6.556;2023-06-14T08:35:06;101983.34;;;26.30;33.89
29359;BME280;16347;53.232;6.556;2023-06-14T08:37:38;101979.88;;;26.34;33.56
29359;BME280;16347;53.232;6.556;2023-06-14T08:40:19;101980.94;;;26.33;33.78
29359;BME280;16347;53.232;6.556;2023-06-14T08:42:50;101984.69;;;26.27;33.85
29359;BME280;16347;53.232;6.556;2023-06-14T08:45:19;101976.09;;;26.29;33.40
29359;BME280;16347;53.232;6.556;2023-06-14T08:47:52;101978.50;;;26.25;33.37
29359;BME280;16347;53.232;6.556;2023-06-14T08:50:27;101972.53;;;26.22;33.31
29359;BME280;16347;53.232;6.556;2023-06-14T08:52:59;101975.94;;;26.24;33.31
29359;BME280;16347;53.232;6.556;2023-06-14T08:55:30;101971.44;;;26.23;33.11
29359;BME280;16347;53.232;6.556;2023-06-14T08:58:03;101968.44;;;26.24;33.16
29359;BME280;16347;53.232;6.556;2023-06-14T09:00:32;101966.25;;;26.26;33.16
29359;BME280;16347;53.232;6.556;2023-06-14T09:03:01;101965.78;;;26.29;33.11
29359;BME280;16347;53.232;6.556;2023-06-14T09:05:31;101970.75;;;26.27;33.17
29359;BME280;16347;53.232;6.556;2023-06-14T09:07:59;101974.59;;;26.26;33.18
29359;BME280;16347;53.232;6.556;2023-06-14T09:10:32;101981.28;;;26.25;33.31
29359;BME280;16347;53.232;6.556;2023-06-14T09:13:02;101990.72;;;26.24;33.10
29359;BME280;16347;53.232;6.556;2023-06-14T09:15:30;101986.50;;;26.22;33.12
29359;BME280;16347;53.232;6.556;2023-06-14T09:18:00;101982.38;;;26.24;33.13
29359;BME280;16347;53.232;6.556;2023-06-14T09:20:29;101980.66;;;26.23;32.90
29359;BME280;16347;53.232;6.556;2023-06-14T09:23:00;101987.94;;;26.24;32.97
29359;BME280;16347;53.232;6.556;2023-06-14T09:25:28;101986.41;;;26.28;33.04
29359;BME280;16347;53.232;6.556;2023-06-14T09:28:06;101983.34;;;26.30;33.08
29359;BME280;16347;53.232;6.556;2023-06-14T09:30:37;101988.31;;;26.28;32.85
29359;BME280;16347;53.232;6.556;2023-06-14T09:33:06;101983.34;;;26.30;32.77
29359;BME280;16347;53.232;6.556;2023-06-14T09:35:34;101981.69;;;26.29;33.01
29359;BME280;16347;53.232;6.556;2023-06-14T09:38:04;101986.63;;;26.27;32.96
29359;BME280;16347;53.232;6.556;2023-06-14T09:40:34;101996.69;;;26.28;33.03
29359;BME280;16347;53.232;6.556;2023-06-14T09:43:06;101989.78;;;26.30;32.92
29359;BME280;16347;53.232;6.556;2023-06-14T09:45:35;101994.75;;;26.28;32.59
29359;BME280;16347;53.232;6.556;2023-06-14T09:48:07;101988.31;;;26.28;32.89
29359;BME280;16347;53.232;6.556;2023-06-14T09:50:35;101998.63;;;26.27;32.64
29359;BME280;16347;53.232;6.556;2023-06-14T09:53:06;102002.66;;;26.31;32.62
29359;BME280;16347;53.232;6.556;2023-06-14T09:55:36;101982.88;;;26.33;32.44
29359;BME280;16347;53.232;6.556;2023-06-14T09:58:06;101981.41;;;26.30;32.54
29359;BME280;16347;53.232;6.556;2023-06-14T10:00:35;101981.59;;;26.35;32.73
29359;BME280;16347;53.232;6.556;2023-06-14T10:03:11;101991.50;;;26.31;32.81
29359;BME280;16347;53.232;6.556;2023-06-14T10:05:42;101988.25;;;26.34;32.71
29359;BME280;16347;53.232;6.556;2023-06-14T10:08:14;101988.25;;;26.34;32.42
29359;BME280;16347;53.232;6.556;2023-06-14T10:10:45;101993.81;;;26.34;32.62
29359;BME280;16347;53.232;6.556;2023-06-14T10:13:13;101987.97;;;26.36;32.58
29359;BME280;16347;53.232;6.556;2023-06-14T10:15:57;101989.69;;;26.37;32.24
29359;BME280;16347;53.232;6.556;2023-06-14T10:18:32;101991.03;;;26.34;32.19
29359;BME280;16347;53.232;6.556;2023-06-14T10:21:06;101978.53;;;26.37;32.38
29359;BME280;16347;53.232;6.556;2023-06-14T10:23:40;101972.09;;;26.36;32.34
29359;BME280;16347;53.232;6.556;2023-06-14T10:26:18;101983.16;;;26.43;32.73
29359;BME280;16347;53.232;6.556;2023-06-14T10:28:59;101980.63;;;26.41;32.30
29359;BME280;16347;53.232;6.556;2023-06-14T10:31:41;101975.66;;;26.43;32.41
29359;BME280;16347;53.232;6.556;2023-06-14T10:34:10;101966.69;;;26.41;32.26
29359;BME280;16347;53.232;6.556;2023-06-14T10:36:41;101971.53;;;26.46;32.15
29359;BME280;16347;53.232;6.556;2023-06-14T10:39:15;101974.81;;;26.43;31.88
29359;BME280;16347;53.232;6.556;2023-06-14T10:41:50;101964.94;;;26.59;32.01
29359;BME280;16347;53.232;6.556;2023-06-14T10:44:37;101969.38;;;26.48;31.97
29359;BME280;16347;53.232;6.556;2023-06-14T10:47:30;101969.22;;;26.43;32.74
29359;BME280;16347;53.232;6.556;2023-06-14T10:50:04;101975.06;;;26.41;32.33
29359;BME280;16347;53.232;6.556;2023-06-14T10:52:34;101967.75;;;26.40;32.33
29359;BME280;16347;53.232;6.556;2023-06-14T10:55:08;101973.97;;;26.42;32.05
29359;BME280;16347;53.232;6.556;2023-06-14T10:57:39;101970.81;;;26.39;32.31
29359;BME280;16347;53.232;6.556;2023-06-14T11:00:19;101966.06;;;26.39;31.53
29359;BME280;16347;53.232;6.556;2023-06-14T11:03:21;101966.13;;;26.51;32.24
29359;BME280;16347;53.232;6.556;2023-06-14T11:05:55;101958.31;;;26.41;32.02
29359;BME280;16347;53.232;6.556;2023-06-14T11:11:42;101946.59;;;26.51;32.02
29359;BME280;16347;53.232;6.556;2023-06-14T11:14:10;101961.38;;;26.51;32.05
29359;BME280;16347;53.232;6.556;2023-06-14T11:16:39;101960.91;;;26.55;32.15
29359;BME280;16347;53.232;6.556;2023-06-14T11:19:07;101955.56;;;26.53;31.74
29359;BME280;16347;53.232;6.556;2023-06-14T11:21:40;101960.66;;;26.56;32.04
29359;BME280;16347;53.232;6.556;2023-06-14T11:24:10;101953.63;;;26.53;32.19
29359;BME280;16347;53.232;6.556;2023-06-14T11:26:40;101947.91;;;26.48;31.63
29359;BME280;16347;53.232;6.556;2023-06-14T11:29:08;101947.19;;;26.53;31.62
29359;BME280;16347;53.232;6.556;2023-06-14T11:31:36;101930.22;;;26.55;31.17
29359;BME280;16347;53.232;6.556;2023-06-14T11:34:04;101937.25;;;26.57;31.41
29359;BME280;16347;53.232;6.556;2023-06-14T11:36:33;101921.50;;;26.63;31.50
29359;BME280;16347;53.232;6.556;2023-06-14T11:39:03;101924.81;;;26.71;31.58
29359;BME280;16347;53.232;6.556;2023-06-14T11:41:36;101932.69;;;26.74;31.65
29359;BME280;16347;53.232;6.556;2023-06-14T11:44:06;101912.56;;;26.72;31.65
29359;BME280;16347;53.232;6.556;2023-06-14T11:46:34;101930.13;;;26.73;31.39
29359;BME280;16347;53.232;6.556;2023-06-14T11:49:02;101925.19;;;26.75;31.27
29359;BME280;16347;53.232;6.556;2023-06-14T11:51:32;101923.63;;;26.79;31.00
29359;BME280;16347;53.232;6.556;2023-06-14T11:54:01;101932.59;;;26.81;31.26
29359;BME280;16347;53.232;6.556;2023-06-14T11:56:29;101939.44;;;26.85;31.14
29359;BME280;16347;53.232;6.556;2023-06-14T11:58:59;101928.16;;;26.91;30.66
29359;BME280;16347;53.232;6.556;2023-06-14T12:01:29;101920.00;;;26.90;30.91
29359;BME280;16347;53.232;6.556;2023-06-14T12:03:59;101931.44;;;26.88;30.54
29359;BME280;16347;53.232;6.556;2023-06-14T12:06:29;101930.56;;;26.88;30.66
29359;BME280;16347;53.232;6.556;2023-06-14T12:09:03;101925.38;;;26.91;30.34
29359;BME280;16347;53.232;6.556;2023-06-14T12:11:34;101928.53;;;26.95;30.56
29359;BME280;16347;53.232;6.556;2023-06-14T12:14:04;101928.53;;;26.95;30.14
29359;BME280;16347;53.232;6.556;2023-06-14T12:16:35;101926.97;;;26.99;30.55
29359;BME280;16347;53.232;6.556;2023-06-14T12:19:12;101923.69;;;27.02;31.04
29359;BME280;16347;53.232;6.556;2023-06-14T12:21:40;101920.53;;;26.98;30.50
29359;BME280;16347;53.232;6.556;2023-06-14T12:24:09;101927.94;;;27.05;29.99
29359;BME280;16347;53.232;6.556;2023-06-14T12:26:40;101914.44;;;27.13;29.66
29359;BME280;16347;53.232;6.556;2023-06-14T12:29:09;101925.25;;;27.21;29.29
29359;BME280;16347;53.232;6.556;2023-06-14T12:31:41;101930.13;;;27.26;29.80
29359;BME280;16347;53.232;6.556;2023-06-14T12:34:15;101929.53;;;27.35;30.14
29359;BME280;16347;53.232;6.556;2023-06-14T12:36:54;101915.44;;;27.42;29.78
29359;BME280;16347;53.232;6.556;2023-06-14T12:39:27;101925.66;;;27.48;29.63
29359;BME280;16347;53.232;6.556;2023-06-14T12:41:56;101925.28;;;27.44;29.21
29359;BME280;16347;53.232;6.556;2023-06-14T12:44:25;101925.28;;;27.44;29.61
29359;BME280;16347;53.232;6.556;2023-06-14T12:46:54;101920.56;;;27.45;29.43
29359;BME280;16347;53.232;6.556;2023-06-14T12:49:22;101923.94;;;27.47;29.76
29359;BME280;16347;53.232;6.556;2023-06-14T12:51:50;101927.59;;;27.47;29.89
29359;BME280;16347;53.232;6.556;2023-06-14T12:54:18;101927.81;;;27.58;29.57
29359;BME280;16347;53.232;6.556;2023-06-14T12:57:05;101926.97;;;27.57;29.26
29359;BME280;16347;53.232;6.556;2023-06-14T12:59:33;101919.91;;;27.66;29.62
29359;BME280;16347;53.232;6.556;2023-06-14T13:02:15;101926.19;;;27.85;29.69
29359;BME280;16347;53.232;6.556;2023-06-14T13:04:43;101918.66;;;27.85;29.00
29359;BME280;16347;53.232;6.556;2023-06-14T13:07:11;101923.16;;;27.86;29.22
29359;BME280;16347;53.232;6.556;2023-06-14T13:09:41;101913.78;;;27.81;28.61